Airfield :
LOGIN :

Register | Disclaimer

   EN    FR    IT 

 










Legend :    VFR   Marginal VFR   IFR   Intensive IFR   Very Intensive IFR
Visi :
Ceiling :
>= 8 km
>= 3000ft
5 to 8 km
1000 to 3000 ft
1500m to 5 km
500 to 1000 ft
800 to 1500m
200 to 500 ft
< 800m
< 200 ft
Symbols :   Thunderstorms  Fog  Heavy snow  Heavy precipitations  Wind > 20 kt
SIGMETs :     Misc.  Thunderstorms  Icing  Turbulence  Mountain Waves  Volcanic Ashes






- Airport Elevation : 1416 ft
- IATA code : ZRH


LSZH - Zurich

CURRENT METAR :
  • 251150Z 05007KT 030V090 9999 FEW044 BKN065 18/06 Q1032 NOSIG

EXPIRED METARs :
  • 251120Z 05005KT 340V090 9999 FEW042 BKN070 18/07 Q1032 NOSIG
  • 251050Z 04007KT 360V080 9999 FEW040 BKN070 18/08 Q1032 NOSIG
  • 251020Z 03006KT 350V080 9999 FEW040 BKN072 17/07 Q1032 NOSIG
  • 250950Z 07007KT 360V110 9999 FEW036 SCT074 17/08 Q1032 NOSIG
  • 250920Z 36005KT 310V130 9999 FEW032 SCT074 16/08 Q1032 NOSIG

TAF TAF LSZH
Valid from the 25 at 12:00 until the 26 at 18:00 UTC


251125Z 2512/2618 04006KT 9999 FEW040 SCT070 TX20/2515Z TN07/2603Z TX21/2615Z
TEMPO 2512/2518 32006KT
BECMG 2519/2522 VRB03KT CAVOK
BECMG 2607/2610 04010KT
TEMPO 2612/2617 9999 FEW050
ATIS : +41 43 816 2295 (DEP) +41 43 816 2294 (ARR)



MET'MAP, your aeronautical weather chart ! - Copyright ORBIFLY December 2007 - Disclaimer

ORBIFLY MET'MAP TEAM :

Programming & Development : Alexandra Zaïnal
Concept & original design : Baudouin d'Aumeries
Assistance for programming : Marc-Olivier Méhu
Technical & hardware support : Manuel Goepfert

Contact : metmap@orbifly.com




SOURCES & CREDITS :

   NOAA